Time;durP1;ratioP1;P1;durP2;ratioP2;P2;SDS_P1;SDS_P2;PMS_P1;PMS_P2;Temp;Humidity;BMP_temperature;BMP_pressure;BME280_temperature;BME280_humidity;BME280_pressure;Samples;Min_cycle;Max_cycle;Signal;HPM_P1;HPM_P2
2023/01/15 00:03:45;;;;;;;4.20;1.53;;;;;;;;;;12838740;19;20347;-66
2023/01/15 00:08:04;;;;;;;3.17;1.73;;;;;;;;;;12838126;19;20729;-64
2023/01/15 00:12:22;;;;;;;3.80;1.55;;;;;;;;;;12838550;19;20046;-65
2023/01/15 00:16:39;;;;;;;4.17;2.10;;;;;;;;;;12837187;19;20422;-64
2023/01/15 00:21:02;;;;;;;3.17;1.83;;;;;;;;;;12837162;19;20440;-64
2023/01/15 00:29:56;;;;;;;4.88;1.40;;;;;;;;;;12834175;19;20362;-65
2023/01/15 00:34:14;;;;;;;4.10;1.88;;;;;;;;;;12835773;19;20298;-64
2023/01/15 00:38:32;;;;;;;3.83;2.20;;;;;;;;;;12836343;19;20348;-65
2023/01/15 00:42:49;;;;;;;3.15;2.17;;;;;;;;;;12838367;19;20303;-65
2023/01/15 00:47:13;;;;;;;5.05;1.77;;;;;;;;;;12846090;19;20438;-64
2023/01/15 00:51:31;;;;;;;3.05;1.70;;;;;;;;;;12848135;19;20436;-64
2023/01/15 00:55:49;;;;;;;3.30;2.17;;;;;;;;;;12847915;19;20429;-65
2023/01/15 01:00:08;;;;;;;6.35;1.70;;;;;;;;;;12846870;19;20707;-64
2023/01/15 01:04:25;;;;;;;3.90;1.67;;;;;;;;;;12848132;19;20450;-65
2023/01/15 01:08:46;;;;;;;4.80;1.77;;;;;;;;;;12847017;19;20331;-64
2023/01/15 01:13:04;;;;;;;3.95;1.73;;;;;;;;;;12845867;19;20434;-64
2023/01/15 01:17:22;;;;;;;4.25;1.67;;;;;;;;;;12846736;19;20347;-65
2023/01/15 01:21:41;;;;;;;4.20;1.50;;;;;;;;;;12847342;19;20469;-64
2023/01/15 01:25:59;;;;;;;2.70;1.52;;;;;;;;;;12845778;19;20014;-64
2023/01/15 01:30:16;;;;;;;2.95;1.40;;;;;;;;;;12847874;19;20356;-64
2023/01/15 01:34:34;;;;;;;5.80;1.65;;;;;;;;;;12845598;19;20019;-65
2023/01/15 01:38:52;;;;;;;5.10;1.87;;;;;;;;;;12845171;19;20350;-67
2023/01/15 01:43:21;;;;;;;4.40;1.77;;;;;;;;;;12815766;19;20481;-66
2023/01/15 01:47:39;;;;;;;4.43;2.35;;;;;;;;;;12842038;19;20462;-64
2023/01/15 01:52:09;;;;;;;10.97;2.73;;;;;;;;;;12844781;19;20280;-65
2023/01/15 01:56:28;;;;;;;5.88;1.85;;;;;;;;;;12841182;19;20427;-66
2023/01/15 02:00:48;;;;;;;6.18;2.40;;;;;;;;;;12842629;19;20339;-67
2023/01/15 02:05:08;;;;;;;7.90;2.72;;;;;;;;;;12841249;19;20351;-66
2023/01/15 02:09:26;;;;;;;4.68;1.63;;;;;;;;;;12845896;19;20430;-64
2023/01/15 02:14:33;;;;;;;4.13;1.87;;;;;;;;;;12844154;19;20006;-66
2023/01/15 02:19:30;;;;;;;3.45;2.00;;;;;;;;;;12842195;19;20434;-66
2023/01/15 02:24:08;;;;;;;2.72;1.55;;;;;;;;;;12844095;19;20425;-65
2023/01/15 02:28:31;;;;;;;3.20;1.50;;;;;;;;;;12842424;19;20306;-65
2023/01/15 02:32:57;;;;;;;2.85;1.60;;;;;;;;;;12842845;19;20371;-67
2023/01/15 02:37:24;;;;;;;4.45;1.52;;;;;;;;;;12839377;19;20430;-65
2023/01/15 02:41:50;;;;;;;3.30;1.90;;;;;;;;;;12840161;19;20469;-65
2023/01/15 02:46:08;;;;;;;7.68;2.88;;;;;;;;;;12840515;19;20014;-64
2023/01/15 02:50:34;;;;;;;5.63;2.78;;;;;;;;;;12841869;19;20448;-65
2023/01/15 02:55:07;;;;;;;7.05;2.72;;;;;;;;;;12839296;19;20327;-65
2023/01/15 02:59:37;;;;;;;10.52;3.00;;;;;;;;;;12838488;19;20064;-64
2023/01/15 03:03:59;;;;;;;5.43;2.33;;;;;;;;;;12839971;19;20014;-66
2023/01/15 03:08:17;;;;;;;6.20;2.72;;;;;;;;;;12836902;19;20018;-65
2023/01/15 03:13:02;;;;;;;4.53;2.40;;;;;;;;;;12335587;19;10002340;-65
2023/01/15 03:17:28;;;;;;;3.78;1.90;;;;;;;;;;12838639;19;20466;-64
2023/01/15 03:22:22;;;;;;;6.35;2.20;;;;;;;;;;12840463;19;20330;-66
2023/01/15 03:26:39;;;;;;;8.80;2.30;;;;;;;;;;12839609;19;20458;-64
2023/01/15 03:30:58;;;;;;;5.17;2.43;;;;;;;;;;12839940;19;20461;-64
2023/01/15 03:35:43;;;;;;;;;;;;;;;;;;12839124;19;20315;-65
2023/01/15 03:40:01;;;;;;;1.98;1.33;;;;;;;;;;12838935;19;19915;-64
2023/01/15 03:44:36;;;;;;;3.78;1.83;;;;;;;;;;12837933;19;20292;-65
2023/01/15 03:49:06;;;;;;;5.70;1.45;;;;;;;;;;12835640;19;20356;-65
2023/01/15 03:53:36;;;;;;;4.03;1.65;;;;;;;;;;12836085;19;20295;-65
2023/01/15 03:58:27;;;;;;;6.13;2.53;;;;;;;;;;12836133;19;20410;-66
2023/01/15 04:02:46;;;;;;;3.55;1.98;;;;;;;;;;12838312;19;20461;-65
2023/01/15 04:07:04;;;;;;;2.35;1.63;;;;;;;;;;12835998;19;20473;-65
2023/01/15 04:11:23;;;;;;;4.10;1.98;;;;;;;;;;12835320;19;20048;-65
2023/01/15 04:15:41;;;;;;;3.35;1.80;;;;;;;;;;12837668;19;20292;-64
2023/01/15 04:19:59;;;;;;;3.40;2.00;;;;;;;;;;12833209;19;20011;-64
2023/01/15 04:24:17;;;;;;;2.93;1.77;;;;;;;;;;12836929;19;20786;-65
2023/01/15 04:28:35;;;;;;;2.60;1.63;;;;;;;;;;12836799;19;20481;-64
2023/01/15 04:32:52;;;;;;;3.07;1.97;;;;;;;;;;12834164;19;20111;-65
2023/01/15 04:37:10;;;;;;;1.93;1.57;;;;;;;;;;12835300;19;20457;-66
2023/01/15 04:46:04;;;;;;;4.05;1.60;;;;;;;;;;12834817;19;20461;-65
2023/01/15 04:50:22;;;;;;;2.40;1.40;;;;;;;;;;12834351;19;20339;-67
2023/01/15 04:54:40;;;;;;;3.30;2.13;;;;;;;;;;12835359;19;20430;-65
2023/01/15 04:59:01;;;;;;;3.50;1.42;;;;;;;;;;12834655;19;20379;-65
2023/01/15 05:03:18;;;;;;;2.95;2.03;;;;;;;;;;12834036;19;20341;-65
2023/01/15 05:07:36;;;;;;;3.47;2.07;;;;;;;;;;12835190;19;20007;-65
2023/01/15 05:11:54;;;;;;;1.95;1.45;;;;;;;;;;12834710;19;20240;-64
2023/01/15 05:16:13;;;;;;;4.17;1.87;;;;;;;;;;12834264;19;20351;-65
2023/01/15 05:20:36;;;;;;;3.88;2.00;;;;;;;;;;12833425;19;20414;-66
2023/01/15 05:24:53;;;;;;;2.75;1.40;;;;;;;;;;12833576;19;20430;-65
2023/01/15 05:29:12;;;;;;;1.35;1.08;;;;;;;;;;12834753;19;20481;-67
2023/01/15 05:33:29;;;;;;;2.65;1.02;;;;;;;;;;12843317;19;20424;-65
2023/01/15 05:37:47;;;;;;;3.03;1.30;;;;;;;;;;12845020;19;20453;-64
2023/01/15 05:42:04;;;;;;;2.07;1.40;;;;;;;;;;12843252;19;20010;-65
2023/01/15 05:46:22;;;;;;;2.28;1.40;;;;;;;;;;12844761;19;20318;-66
2023/01/15 05:50:39;;;;;;;2.67;1.73;;;;;;;;;;12845541;19;20304;-65
2023/01/15 05:54:57;;;;;;;1.75;1.13;;;;;;;;;;12844495;19;20367;-65
2023/01/15 05:59:20;;;;;;;2.03;1.38;;;;;;;;;;12800283;19;20358;-65
2023/01/15 06:03:38;;;;;;;3.28;1.33;;;;;;;;;;12843855;19;20030;-65
2023/01/15 06:07:55;;;;;;;2.50;1.67;;;;;;;;;;12841869;19;20006;-65
2023/01/15 06:12:13;;;;;;;2.43;1.60;;;;;;;;;;12843481;19;20437;-65
2023/01/15 06:16:32;;;;;;;2.40;1.58;;;;;;;;;;12843727;19;20340;-64
2023/01/15 06:20:50;;;;;;;2.75;1.23;;;;;;;;;;12842674;19;20449;-65
2023/01/15 06:25:08;;;;;;;6.37;1.40;;;;;;;;;;12842283;19;20449;-66
2023/01/15 06:29:26;;;;;;;4.23;2.00;;;;;;;;;;12843511;19;20567;-66
2023/01/15 06:33:44;;;;;;;5.05;1.92;;;;;;;;;;12842894;19;20216;-65
2023/01/15 06:38:01;;;;;;;3.45;1.75;;;;;;;;;;12842346;19;20473;-66
2023/01/15 06:51:32;;;;;;;2.42;1.45;;;;;;;;;;12841888;19;20010;-65
2023/01/15 06:55:50;;;;;;;3.03;1.17;;;;;;;;;;12841533;19;20010;-65
2023/01/15 07:00:10;;;;;;;4.45;1.80;;;;;;;;;;12839991;19;20720;-65
2023/01/15 07:04:28;;;;;;;4.80;2.10;;;;;;;;;;12840912;19;20422;-65
2023/01/15 07:08:46;;;;;;;3.07;1.60;;;;;;;;;;12841312;19;20002;-65
2023/01/15 07:13:03;;;;;;;2.67;1.80;;;;;;;;;;12839911;19;20319;-66
2023/01/15 07:17:21;;;;;;;8.60;3.95;;;;;;;;;;12840729;19;20434;-66
2023/01/15 07:21:39;;;;;;;7.73;3.40;;;;;;;;;;12841825;19;20533;-65
2023/01/15 07:25:56;;;;;;;6.50;3.70;;;;;;;;;;12839725;19;20430;-65
2023/01/15 07:30:14;;;;;;;9.20;4.30;;;;;;;;;;12839020;19;20438;-65
2023/01/15 07:34:32;;;;;;;13.45;4.43;;;;;;;;;;12839942;19;20414;-65
2023/01/15 07:38:50;;;;;;;8.48;4.50;;;;;;;;;;12838887;19;20019;-65
2023/01/15 07:52:21;;;;;;;5.70;2.70;;;;;;;;;;12837908;19;20448;-65
2023/01/15 07:56:39;;;;;;;4.75;2.38;;;;;;;;;;12837111;19;20006;-65
2023/01/15 08:00:57;;;;;;;9.48;4.18;;;;;;;;;;12836855;19;20547;-65
2023/01/15 08:05:16;;;;;;;5.53;2.50;;;;;;;;;;12837826;19;20031;-66
2023/01/15 08:09:34;;;;;;;;;;;;;;;;;;12838345;19;20019;-65
2023/01/15 08:18:29;;;;;;;8.35;3.90;;;;;;;;;;12835891;19;20299;-66
2023/01/15 08:22:47;;;;;;;6.83;3.13;;;;;;;;;;12837824;19;20434;-65
2023/01/15 08:27:05;;;;;;;7.13;2.75;;;;;;;;;;12822289;19;123360;-65
2023/01/15 08:31:22;;;;;;;4.93;2.80;;;;;;;;;;12836549;19;20041;-65
2023/01/15 08:35:40;;;;;;;14.10;7.23;;;;;;;;;;12823814;19;124013;-66
2023/01/15 08:39:58;;;;;;;12.95;6.30;;;;;;;;;;12835199;19;20473;-66
2023/01/15 08:44:15;;;;;;;9.07;5.67;;;;;;;;;;12835100;19;20477;-67
2023/01/15 08:48:33;;;;;;;8.68;5.90;;;;;;;;;;12833694;19;20465;-66
2023/01/15 08:52:51;;;;;;;8.23;4.68;;;;;;;;;;12832110;19;20471;-66
2023/01/15 08:57:10;;;;;;;9.82;5.50;;;;;;;;;;12816847;19;122218;-65
2023/01/15 09:01:28;;;;;;;4.95;3.65;;;;;;;;;;12830721;19;20018;-65
2023/01/15 09:05:46;;;;;;;16.73;8.55;;;;;;;;;;12840476;19;20038;-65
2023/01/15 09:10:04;;;;;;;15.30;7.93;;;;;;;;;;12841920;19;20437;-65
2023/01/15 09:14:22;;;;;;;25.70;15.55;;;;;;;;;;12843015;19;20414;-65
2023/01/15 09:19:00;;;;;;;8.07;4.43;;;;;;;;;;12841531;19;20014;-65
2023/01/15 09:23:17;;;;;;;5.83;3.13;;;;;;;;;;12841877;19;20380;-67
2023/01/15 09:27:36;;;;;;;8.95;5.57;;;;;;;;;;12841815;19;20426;-65
2023/01/15 09:31:54;;;;;;;11.98;7.85;;;;;;;;;;12841786;19;20430;-65
2023/01/15 09:36:23;;;;;;;11.48;4.45;;;;;;;;;;12840659;19;20349;-65
2023/01/15 09:40:58;;;;;;;6.78;3.35;;;;;;;;;;12839041;19;20323;-66
2023/01/15 09:45:48;;;;;;;7.97;4.22;;;;;;;;;;12840474;19;20461;-65
2023/01/15 09:51:11;;;;;;;27.75;10.98;;;;;;;;;;12702074;19;2789035;-66
2023/01/15 09:55:32;;;;;;;16.00;7.25;;;;;;;;;;12841812;19;20537;-66
2023/01/15 09:59:53;;;;;;;15.02;6.63;;;;;;;;;;12843844;19;20444;-65
2023/01/15 10:04:39;;;;;;;13.15;6.85;;;;;;;;;;12842117;19;20338;-65
2023/01/15 10:09:22;;;;;;;23.85;12.65;;;;;;;;;;12842467;19;20315;-64
2023/01/15 10:13:59;;;;;;;14.30;6.25;;;;;;;;;;12841845;19;20422;-65
2023/01/15 10:18:23;;;;;;;6.03;3.35;;;;;;;;;;12841265;19;20356;-65
2023/01/15 10:23:27;;;;;;;9.35;4.85;;;;;;;;;;12843472;19;20455;-65
2023/01/15 10:27:49;;;;;;;5.28;2.42;;;;;;;;;;12842374;19;20379;-67
2023/01/15 10:32:17;;;;;;;12.55;5.57;;;;;;;;;;12841728;19;20006;-66
2023/01/15 10:36:39;;;;;;;;;;;;;;;;;;12841754;19;20032;-65
2023/01/15 10:41:36;;;;;;;13.10;5.90;;;;;;;;;;12841907;19;20294;-65
2023/01/15 10:46:01;;;;;;;11.65;5.50;;;;;;;;;;12844123;19;20471;-66
2023/01/15 10:50:25;;;;;;;8.20;3.15;;;;;;;;;;12839108;19;20312;-67
2023/01/15 10:55:10;;;;;;;6.22;3.35;;;;;;;;;;12842468;19;20303;-65
2023/01/15 10:59:56;;;;;;;5.80;3.22;;;;;;;;;;12841383;19;20433;-65
2023/01/15 11:04:14;;;;;;;10.40;3.83;;;;;;;;;;12839433;19;20358;-66
2023/01/15 11:08:32;;;;;;;9.98;5.22;;;;;;;;;;12840713;19;20326;-65
2023/01/15 11:22:38;;;;;;;6.85;3.22;;;;;;;;;;12839875;19;20379;-67
2023/01/15 11:26:56;;;;;;;5.22;1.95;;;;;;;;;;12836638;19;20006;-67
2023/01/15 11:31:15;;;;;;;7.82;2.83;;;;;;;;;;12836990;19;20357;-67
2023/01/15 11:35:33;;;;;;;5.10;2.55;;;;;;;;;;12839273;19;20311;-65
2023/01/15 11:40:04;;;;;;;6.05;2.10;;;;;;;;;;12839388;19;20477;-65
2023/01/15 11:53:58;;;;;;;26.17;11.45;;;;;;;;;;12838634;19;20317;-66
2023/01/15 11:58:15;;;;;;;13.32;6.00;;;;;;;;;;12835507;19;20470;-66
2023/01/15 12:02:42;;;;;;;5.23;2.73;;;;;;;;;;12836479;19;20437;-65
2023/01/15 12:07:02;;;;;;;6.45;2.38;;;;;;;;;;12838084;19;20011;-66
2023/01/15 12:11:54;;;;;;;5.38;2.40;;;;;;;;;;12837402;19;20438;-67
2023/01/15 12:16:12;;;;;;;7.15;3.88;;;;;;;;;;12835790;19;20473;-65
2023/01/15 12:20:50;;;;;;;8.47;3.57;;;;;;;;;;12836985;19;20355;-65
2023/01/15 12:25:36;;;;;;;5.90;2.78;;;;;;;;;;12836815;19;20371;-65
2023/01/15 12:30:26;;;;;;;4.88;2.42;;;;;;;;;;12835568;19;20010;-65
2023/01/15 12:34:55;;;;;;;8.13;4.78;;;;;;;;;;12834816;19;20378;-67
2023/01/15 12:39:45;;;;;;;8.95;4.20;;;;;;;;;;12839348;19;20430;-65
2023/01/15 12:48:50;;;;;;;6.32;4.00;;;;;;;;;;12846189;19;20485;-67
2023/01/15 12:53:26;;;;;;;5.70;2.92;;;;;;;;;;12846802;19;20444;-66
2023/01/15 12:57:48;;;;;;;5.75;3.05;;;;;;;;;;12848629;19;20491;-66
2023/01/15 13:03:08;;;;;;;7.90;3.20;;;;;;;;;;12844889;19;20343;-65
2023/01/15 13:07:40;;;;;;;12.68;6.35;;;;;;;;;;12843201;19;20450;-65
2023/01/15 13:11:58;;;;;;;11.20;5.55;;;;;;;;;;12847302;19;20454;-65
2023/01/15 13:16:22;;;;;;;13.53;7.03;;;;;;;;;;12845892;19;20440;-65
2023/01/15 13:20:51;;;;;;;13.77;6.50;;;;;;;;;;12846918;19;20424;-66
2023/01/15 13:26:01;;;;;;;11.93;5.30;;;;;;;;;;12844079;19;20426;-66
2023/01/15 13:31:19;;;;;;;10.48;5.15;;;;;;;;;;12845831;19;20457;-65
2023/01/15 13:35:45;;;;;;;;;;;;;;;;;;12845394;19;20484;-65
2023/01/15 13:40:20;;;;;;;27.27;9.77;;;;;;;;;;12842624;19;20274;-65
2023/01/15 13:44:48;;;;;;;33.40;8.40;;;;;;;;;;12844725;19;20027;-66
2023/01/15 13:49:20;;;;;;;9.03;3.97;;;;;;;;;;12841137;19;20532;-67
2023/01/15 13:53:46;;;;;;;14.95;5.32;;;;;;;;;;12844133;19;20497;-65
2023/01/15 13:58:22;;;;;;;6.90;3.60;;;;;;;;;;12842959;19;20506;-66
2023/01/15 14:02:52;;;;;;;22.50;10.73;;;;;;;;;;12843334;19;20509;-65
2023/01/15 14:07:30;;;;;;;35.38;13.73;;;;;;;;;;12843796;19;20429;-65
2023/01/15 14:12:06;;;;;;;20.33;9.13;;;;;;;;;;12844537;19;20335;-67
2023/01/15 14:17:01;;;;;;;15.70;7.22;;;;;;;;;;12843230;19;20497;-65
2023/01/15 14:21:39;;;;;;;17.15;8.27;;;;;;;;;;12840275;19;20474;-66
2023/01/15 14:26:36;;;;;;;7.13;3.35;;;;;;;;;;12841997;19;20015;-66
2023/01/15 14:31:42;;;;;;;16.47;8.23;;;;;;;;;;12842880;19;20421;-67
2023/01/15 14:36:29;;;;;;;25.98;15.13;;;;;;;;;;12841280;19;20426;-66
2023/01/15 14:41:00;;;;;;;18.17;9.05;;;;;;;;;;12841776;19;20012;-66
2023/01/15 14:46:08;;;;;;;24.90;11.05;;;;;;;;;;12841844;19;20461;-66
2023/01/15 14:50:39;;;;;;;33.00;14.48;;;;;;;;;;12833977;19;20528;-65
2023/01/15 14:54:57;;;;;;;40.03;19.52;;;;;;;;;;12838511;19;20465;-66
2023/01/15 14:59:36;;;;;;;39.28;18.23;;;;;;;;;;12839204;19;20639;-65
2023/01/15 15:03:57;;;;;;;33.47;15.65;;;;;;;;;;12839165;19;20458;-66
2023/01/15 15:08:18;;;;;;;26.45;12.32;;;;;;;;;;12838938;19;20330;-67
2023/01/15 15:13:18;;;;;;;33.60;15.63;;;;;;;;;;12839519;19;20445;-66
2023/01/15 15:18:02;;;;;;;40.50;19.20;;;;;;;;;;12839613;19;20698;-65
2023/01/15 15:22:23;;;;;;;56.45;22.48;;;;;;;;;;12838383;19;20418;-66
2023/01/15 15:26:41;;;;;;;54.08;26.73;;;;;;;;;;12839876;19;20469;-67
2023/01/15 15:31:00;;;;;;;76.53;35.05;;;;;;;;;;12839948;19;20462;-66
2023/01/15 15:35:28;;;;;;;85.35;36.50;;;;;;;;;;12837866;19;20433;-68
2023/01/15 15:40:18;;;;;;;104.50;48.47;;;;;;;;;;12840209;19;20441;-65
2023/01/15 15:49:40;;;;;;;52.45;24.45;;;;;;;;;;12837969;19;20465;-65
2023/01/15 15:54:25;;;;;;;34.63;17.52;;;;;;;;;;12840118;19;20433;-66
2023/01/15 15:58:43;;;;;;;34.13;14.57;;;;;;;;;;12839720;19;20364;-65
2023/01/15 16:03:24;;;;;;;56.15;27.38;;;;;;;;;;12837863;19;20441;-65
2023/01/15 16:07:41;;;;;;;70.30;31.42;;;;;;;;;;12837880;19;20296;-65
2023/01/15 16:12:06;;;;;;;141.70;52.55;;;;;;;;;;12838422;19;20549;-65
2023/01/15 16:16:26;;;;;;;153.07;64.15;;;;;;;;;;12835448;19;20346;-67
2023/01/15 16:20:44;;;;;;;113.20;50.40;;;;;;;;;;12836787;19;20426;-66
2023/01/15 16:25:02;;;;;;;72.53;31.13;;;;;;;;;;12837207;19;20445;-66
2023/01/15 16:29:24;;;;;;;56.00;29.70;;;;;;;;;;12836401;19;20434;-67
2023/01/15 16:33:42;;;;;;;74.13;33.20;;;;;;;;;;12837704;19;20319;-66
2023/01/15 16:38:01;;;;;;;49.53;20.23;;;;;;;;;;12833943;19;20519;-66
2023/01/15 16:42:36;;;;;;;25.55;11.45;;;;;;;;;;12833526;19;20305;-66
2023/01/15 16:46:57;;;;;;;20.88;9.13;;;;;;;;;;12833364;19;20430;-66
2023/01/15 16:51:31;;;;;;;22.00;9.90;;;;;;;;;;12835885;19;20426;-66
2023/01/15 16:55:53;;;;;;;15.00;6.32;;;;;;;;;;12836129;19;20627;-67
2023/01/15 17:00:29;;;;;;;18.92;9.68;;;;;;;;;;12834354;19;20355;-67
2023/01/15 17:04:47;;;;;;;17.10;10.73;;;;;;;;;;12835244;19;20341;-68
2023/01/15 17:09:12;;;;;;;10.18;5.38;;;;;;;;;;12833575;19;20030;-67
2023/01/15 17:13:39;;;;;;;10.05;6.60;;;;;;;;;;12833421;19;20543;-66
2023/01/15 17:17:57;;;;;;;18.75;6.70;;;;;;;;;;12832794;19;20274;-66
2023/01/15 17:22:30;;;;;;;13.37;7.47;;;;;;;;;;12834097;19;20454;-67
2023/01/15 17:26:48;;;;;;;15.05;7.18;;;;;;;;;;12841516;19;20444;-67
2023/01/15 17:31:22;;;;;;;16.45;7.70;;;;;;;;;;12845762;19;20418;-67
2023/01/15 17:35:41;;;;;;;17.67;10.55;;;;;;;;;;12844737;19;20336;-67
2023/01/15 17:39:58;;;;;;;;;;;;;;;;;;12846005;19;20349;-68
2023/01/15 17:44:16;;;;;;;19.53;10.27;;;;;;;;;;12845153;19;19923;-67
2023/01/15 17:48:34;;;;;;;27.67;12.98;;;;;;;;;;12845127;19;20003;-67
2023/01/15 17:52:52;;;;;;;25.05;12.60;;;;;;;;;;12843432;19;20019;-67
2023/01/15 18:06:23;;;;;;;13.60;6.88;;;;;;;;;;12843136;19;20322;-68
2023/01/15 18:10:40;;;;;;;12.70;6.53;;;;;;;;;;12843533;19;20143;-67
2023/01/15 18:14:59;;;;;;;15.32;7.25;;;;;;;;;;12842284;19;20444;-69
2023/01/15 18:19:16;;;;;;;30.50;16.83;;;;;;;;;;12841600;19;20379;-67
2023/01/15 18:23:38;;;;;;;12.95;6.05;;;;;;;;;;12846368;19;20764;-68
2023/01/15 18:27:55;;;;;;;43.20;19.65;;;;;;;;;;12843376;19;20426;-69
2023/01/15 18:32:13;;;;;;;52.85;20.58;;;;;;;;;;12842102;19;20469;-67
2023/01/15 18:36:31;;;;;;;30.30;15.10;;;;;;;;;;12844001;19;19998;-68
2023/01/15 18:40:49;;;;;;;21.67;10.32;;;;;;;;;;12839707;19;20010;-68
2023/01/15 18:49:45;;;;;;;11.73;7.00;;;;;;;;;;12842186;19;20314;-68
2023/01/15 18:54:05;;;;;;;11.00;7.15;;;;;;;;;;12840987;19;20303;-69
2023/01/15 18:58:22;;;;;;;;;;;;;;;;;;12843294;19;20481;-67
2023/01/15 19:02:40;;;;;;;16.85;8.02;;;;;;;;;;12841367;19;20259;-67
2023/01/15 19:06:57;;;;;;;23.30;11.02;;;;;;;;;;12842079;19;20476;-67
2023/01/15 19:11:15;;;;;;;19.25;9.10;;;;;;;;;;12840515;19;20319;-68
2023/01/15 19:20:14;;;;;;;23.17;11.90;;;;;;;;;;12837157;19;20592;-68
2023/01/15 19:24:33;;;;;;;16.40;8.82;;;;;;;;;;12843765;19;20468;-67
2023/01/15 19:28:51;;;;;;;39.47;14.38;;;;;;;;;;12841171;19;20465;-67
2023/01/15 19:33:09;;;;;;;34.20;14.48;;;;;;;;;;12839155;19;20299;-67
2023/01/15 19:37:26;;;;;;;18.63;8.75;;;;;;;;;;12836458;19;20737;-69
2023/01/15 19:50:59;;;;;;;12.35;6.93;;;;;;;;;;12837347;19;20474;-67
2023/01/15 19:55:18;;;;;;;7.80;4.07;;;;;;;;;;12837456;19;20387;-67
2023/01/15 19:59:35;;;;;;;9.88;5.22;;;;;;;;;;12838813;19;20455;-66
2023/01/15 20:03:53;;;;;;;8.50;4.75;;;;;;;;;;12836407;19;20018;-67
2023/01/15 20:08:17;;;;;;;8.10;4.32;;;;;;;;;;12838509;19;20312;-67
2023/01/15 20:17:12;;;;;;;30.67;12.80;;;;;;;;;;12835877;19;20441;-67
2023/01/15 20:21:30;;;;;;;19.58;8.95;;;;;;;;;;12833876;19;20372;-68
2023/01/15 20:25:50;;;;;;;9.10;4.83;;;;;;;;;;12835834;19;20462;-66
2023/01/15 20:30:13;;;;;;;13.77;7.18;;;;;;;;;;12835999;19;20303;-66
2023/01/15 20:34:35;;;;;;;29.40;14.88;;;;;;;;;;12836358;19;20018;-66
2023/01/15 20:38:52;;;;;;;23.05;13.00;;;;;;;;;;12834868;19;20430;-67
2023/01/15 20:52:23;;;;;;;21.20;10.25;;;;;;;;;;12834580;19;20473;-66
2023/01/15 20:56:41;;;;;;;22.90;9.95;;;;;;;;;;12835029;19;20437;-67
2023/01/15 21:01:05;;;;;;;34.07;13.53;;;;;;;;;;12842906;19;20346;-67
2023/01/15 21:05:25;;;;;;;37.05;12.60;;;;;;;;;;12847864;19;20457;-66
2023/01/15 21:09:43;;;;;;;29.10;9.93;;;;;;;;;;12844637;19;20331;-67
2023/01/15 21:14:00;;;;;;;79.30;21.45;;;;;;;;;;12845664;19;20429;-66
2023/01/15 21:18:18;;;;;;;35.67;13.10;;;;;;;;;;12838211;19;20355;-66
2023/01/15 21:22:36;;;;;;;16.43;7.60;;;;;;;;;;12846488;19;20445;-66
2023/01/15 21:26:54;;;;;;;10.77;5.72;;;;;;;;;;12845993;19;20007;-66
2023/01/15 21:31:13;;;;;;;17.17;7.90;;;;;;;;;;12844483;19;20323;-67
2023/01/15 21:35:30;;;;;;;20.80;8.30;;;;;;;;;;12845378;19;20385;-68
2023/01/15 21:39:48;;;;;;;39.65;15.30;;;;;;;;;;12844218;19;20448;-67
2023/01/15 21:48:50;;;;;;;24.48;10.32;;;;;;;;;;12844121;19;20019;-67
2023/01/15 21:53:08;;;;;;;27.27;13.45;;;;;;;;;;12844948;19;20294;-68
2023/01/15 21:57:29;;;;;;;8.70;5.33;;;;;;;;;;12845574;19;20422;-68
2023/01/15 22:01:46;;;;;;;12.60;6.28;;;;;;;;;;12844277;19;20338;-66
2023/01/15 22:06:07;;;;;;;13.80;7.63;;;;;;;;;;12843787;19;20364;-66
2023/01/15 22:10:24;;;;;;;15.35;6.03;;;;;;;;;;12842157;19;20605;-66
2023/01/15 22:14:42;;;;;;;12.20;5.75;;;;;;;;;;12845087;19;20326;-67
2023/01/15 22:19:00;;;;;;;10.18;5.57;;;;;;;;;;12841920;19;20349;-66
2023/01/15 22:23:18;;;;;;;10.60;4.60;;;;;;;;;;12841236;19;20418;-68
2023/01/15 22:27:39;;;;;;;11.30;5.43;;;;;;;;;;12845044;19;20469;-66
2023/01/15 22:31:58;;;;;;;7.25;3.63;;;;;;;;;;12842968;19;20343;-66
2023/01/15 22:36:16;;;;;;;11.52;4.03;;;;;;;;;;12840539;19;20494;-66
2023/01/15 22:40:34;;;;;;;8.15;4.75;;;;;;;;;;12845087;19;20489;-66
2023/01/15 22:44:54;;;;;;;8.07;4.40;;;;;;;;;;12841684;19;20010;-66
2023/01/15 22:49:12;;;;;;;10.45;5.38;;;;;;;;;;12840840;19;20331;-66
2023/01/15 22:53:30;;;;;;;11.10;4.67;;;;;;;;;;12842187;19;20302;-66
2023/01/15 22:57:48;;;;;;;4.25;3.15;;;;;;;;;;12843177;19;20445;-68
2023/01/15 23:02:05;;;;;;;6.37;3.50;;;;;;;;;;12839478;19;20332;-67
2023/01/15 23:06:25;;;;;;;5.07;3.30;;;;;;;;;;12839735;19;20433;-66
2023/01/15 23:10:45;;;;;;;6.22;3.35;;;;;;;;;;12842410;19;20022;-66
2023/01/15 23:15:02;;;;;;;4.68;2.72;;;;;;;;;;12838151;19;20441;-66
2023/01/15 23:19:20;;;;;;;6.70;3.50;;;;;;;;;;12840111;19;20429;-67
2023/01/15 23:23:39;;;;;;;4.32;3.03;;;;;;;;;;12838133;19;20347;-68
2023/01/15 23:27:56;;;;;;;6.18;3.40;;;;;;;;;;12840002;19;20450;-67
2023/01/15 23:32:14;;;;;;;9.15;4.45;;;;;;;;;;12839667;19;20363;-66
2023/01/15 23:36:31;;;;;;;7.70;3.73;;;;;;;;;;12840092;19;20010;-66
2023/01/15 23:40:49;;;;;;;9.38;3.17;;;;;;;;;;12838469;19;20466;-67
2023/01/15 23:49:46;;;;;;;8.30;3.85;;;;;;;;;;12836036;19;20033;-66
2023/01/15 23:54:04;;;;;;;6.82;3.83;;;;;;;;;;12838573;19;20437;-69
2023/01/15 23:58:22;;;;;;;7.07;4.22;;;;;;;;;;12835455;19;20331;-67
